Time;durP1;ratioP1;P1;durP2;ratioP2;P2;SDS_P1;SDS_P2;PMS_P1;PMS_P2;Temp;Humidity;BMP_temperature;BMP_pressure;BME280_temperature;BME280_humidity;BME280_pressure;Samples;Min_cycle;Max_cycle;Signal;HPM_P1;HPM_P2
2022/11/17 00:01:20;;;;;;;0.50;0.45;;;10.50;99.90;;;;;;5054459;28;20285;-77
2022/11/17 00:03:47;;;;;;;0.50;0.40;;;10.40;99.90;;;;;;5055163;28;20217;-78
2022/11/17 00:06:16;;;;;;;0.50;0.50;;;10.50;99.90;;;;;;5054172;28;20199;-78
2022/11/17 00:08:43;;;;;;;0.50;0.40;;;10.50;99.90;;;;;;5053881;28;20210;-78
2022/11/17 00:11:09;;;;;;;2.50;0.70;;;10.40;99.90;;;;;;5054776;28;20205;-75
2022/11/17 00:16:21;;;;;;;0.80;0.80;;;10.40;99.90;;;;;;5055297;28;20217;-78
2022/11/17 00:21:34;;;;;;;1.15;0.73;;;10.30;99.90;;;;;;5054565;28;20233;-78
2022/11/17 00:24:01;;;;;;;8.13;0.80;;;10.30;99.90;;;;;;5053609;28;20209;-78
2022/11/17 00:26:30;;;;;;;0.50;0.50;;;10.30;99.90;;;;;;5054693;28;20572;-78
2022/11/17 00:28:58;;;;;;;0.60;0.40;;;10.20;99.90;;;;;;5054666;28;20219;-78
2022/11/17 00:34:14;;;;;;;0.75;0.75;;;10.20;99.90;;;;;;5053830;28;20548;-78
2022/11/17 00:36:44;;;;;;;0.50;0.40;;;10.20;99.90;;;;;;5054515;28;20219;-78
2022/11/17 00:39:12;;;;;;;0.50;0.40;;;10.20;99.90;;;;;;5054405;28;20214;-76
2022/11/17 00:41:39;;;;;;;0.50;0.40;;;10.20;99.90;;;;;;5054013;28;20598;-79
2022/11/17 00:44:06;;;;;;;0.60;0.60;;;10.20;99.90;;;;;;5053902;28;20281;-79
2022/11/17 00:46:33;;;;;;;0.50;0.40;;;10.20;99.90;;;;;;5053822;28;20198;-78
2022/11/17 00:49:00;;;;;;;0.70;0.70;;;10.20;99.90;;;;;;5054254;28;20214;-78
2022/11/17 00:51:27;;;;;;;6.97;0.70;;;10.20;99.90;;;;;;5054052;28;20511;-78
2022/11/17 00:53:55;;;;;;;0.80;0.70;;;10.30;99.90;;;;;;5053437;28;20194;-77
2022/11/17 00:56:24;;;;;;;0.93;0.80;;;10.20;99.90;;;;;;5054382;28;20218;-78
2022/11/17 00:58:51;;;;;;;6.63;1.05;;;10.20;99.90;;;;;;5053926;28;20218;-77
2022/11/17 01:01:18;;;;;;;0.70;0.60;;;10.30;99.90;;;;;;5054502;28;20197;-77
2022/11/17 01:03:44;;;;;;;0.73;0.50;;;10.20;99.90;;;;;;5053635;28;20885;-77
2022/11/17 01:06:14;;;;;;;0.70;0.70;;;10.20;99.90;;;;;;5053963;28;20195;-77
2022/11/17 01:08:40;;;;;;;0.50;0.40;;;10.20;99.90;;;;;;5053682;28;20214;-77
2022/11/17 01:11:11;;;;;;;0.50;0.40;;;10.20;99.90;;;;;;5053393;28;20289;-77
2022/11/17 01:13:40;;;;;;;0.50;0.40;;;10.10;99.90;;;;;;5054319;28;20214;-78
2022/11/17 01:16:08;;;;;;;0.98;0.80;;;10.10;99.90;;;;;;5053199;28;20309;-77
2022/11/17 01:18:36;;;;;;;0.70;0.60;;;10.10;99.90;;;;;;5053480;28;20240;-78
2022/11/17 01:21:05;;;;;;;0.50;0.40;;;10.10;99.90;;;;;;5053441;28;20222;-77
2022/11/17 01:23:32;;;;;;;0.60;0.60;;;10.10;99.90;;;;;;5053465;28;20199;-77
2022/11/17 01:26:06;;;;;;;0.50;0.40;;;10.10;99.90;;;;;;5052422;28;20281;-77
2022/11/17 01:28:35;;;;;;;0.50;0.50;;;10.00;99.90;;;;;;5053426;28;20871;-78
2022/11/17 01:31:04;;;;;;;1.15;1.05;;;10.00;99.90;;;;;;5053588;28;20195;-78
2022/11/17 01:33:31;;;;;;;0.50;0.50;;;10.00;99.90;;;;;;5044880;28;20285;-77
2022/11/17 01:36:02;;;;;;;0.50;0.40;;;10.00;99.90;;;;;;5052896;28;20302;-78
2022/11/17 01:38:29;;;;;;;0.50;0.40;;;10.00;99.90;;;;;;5053135;28;20238;-78
2022/11/17 01:40:58;;;;;;;0.50;0.50;;;10.00;99.90;;;;;;5053577;28;20198;-77
2022/11/17 01:43:43;;;;;;;1.70;1.02;;;10.00;99.90;;;;;;5052486;28;20202;-77
2022/11/17 01:46:25;;;;;;;0.50;0.40;;;10.00;99.90;;;;;;5052553;28;20194;-78
2022/11/17 01:48:54;;;;;;;0.50;0.40;;;10.00;99.90;;;;;;5053222;28;20297;-77
2022/11/17 01:51:22;;;;;;;0.50;0.50;;;10.00;99.90;;;;;;5053618;28;20312;-77
2022/11/17 01:53:50;;;;;;;0.60;0.55;;;10.00;99.90;;;;;;5052726;28;20198;-77
2022/11/17 01:56:21;;;;;;;0.60;0.60;;;10.00;99.90;;;;;;5052549;28;20715;-76
2022/11/17 01:58:54;;;;;;;0.60;0.60;;;10.00;99.90;;;;;;5052977;28;20232;-80
2022/11/17 02:01:21;;;;;;;0.70;0.70;;;10.00;99.90;;;;;;5052514;28;20201;-77
2022/11/17 02:03:50;;;;;;;0.73;0.73;;;10.00;99.90;;;;;;5051784;28;20206;-77
2022/11/17 02:06:23;;;;;;;0.50;0.40;;;10.00;99.90;;;;;;5052612;28;20186;-76
2022/11/17 02:08:52;;;;;;;2.45;1.58;;;10.00;99.90;;;;;;5052249;28;20418;-77
2022/11/17 02:11:21;;;;;;;0.50;0.40;;;10.00;99.90;;;;;;5052010;28;20197;-78
2022/11/17 02:13:51;;;;;;;1.08;0.98;;;9.90;99.90;;;;;;5051764;28;20660;-77
2022/11/17 02:16:18;;;;;;;0.50;0.40;;;9.90;99.90;;;;;;5051412;28;20221;-75
2022/11/17 02:18:46;;;;;;;0.60;0.50;;;9.90;99.90;;;;;;5051633;28;20216;-77
2022/11/17 02:21:26;;;;;;;1.33;1.23;;;9.90;99.90;;;;;;5051530;28;20205;-77
2022/11/17 02:24:19;;;;;;;4.80;0.80;;;9.90;99.90;;;;;;5051457;28;20197;-77
2022/11/17 02:27:16;;;;;;;0.70;0.55;;;9.90;99.90;;;;;;5051867;28;20579;-77
2022/11/17 02:29:52;;;;;;;0.70;0.68;;;10.00;99.90;;;;;;5051936;28;20340;-77
2022/11/17 02:32:27;;;;;;;0.50;0.40;;;10.00;99.90;;;;;;5052288;28;20280;-77
2022/11/17 02:35:04;;;;;;;6.18;0.80;;;10.00;99.90;;;;;;5051273;28;20198;-77
2022/11/17 02:37:35;;;;;;;0.93;0.93;;;10.00;99.90;;;;;;5052338;28;20225;-78
2022/11/17 02:40:08;;;;;;;0.60;0.50;;;10.00;99.90;;;;;;5052927;28;20566;-77
2022/11/17 02:45:27;;;;;;;1.13;0.43;;;10.00;99.90;;;;;;5051388;28;20201;-77
2022/11/17 02:47:57;;;;;;;0.60;0.40;;;10.00;99.90;;;;;;5052454;28;20217;-78
2022/11/17 02:50:27;;;;;;;0.60;0.50;;;10.00;99.90;;;;;;5052767;28;20261;-78
2022/11/17 02:52:54;;;;;;;0.70;0.63;;;10.00;99.90;;;;;;5051902;28;20197;-77
2022/11/17 02:55:21;;;;;;;0.60;0.60;;;10.00;99.90;;;;;;5051716;28;20201;-77
2022/11/17 02:57:49;;;;;;;0.85;0.60;;;10.00;99.90;;;;;;5051907;28;20287;-78
2022/11/17 03:00:18;;;;;;;0.60;0.50;;;10.00;99.90;;;;;;5051527;28;20190;-78
2022/11/17 03:03:17;;;;;;;0.60;0.50;;;10.10;99.90;;;;;;5052611;28;20190;-78
2022/11/17 03:05:52;;;;;;;0.60;0.60;;;10.10;99.90;;;;;;5052241;28;20203;-78
2022/11/17 03:08:30;;;;;;;1.60;0.50;;;10.10;99.90;;;;;;5051579;28;20221;-78
2022/11/17 03:11:01;;;;;;;0.60;0.50;;;10.10;99.90;;;;;;5052423;28;20179;-79
2022/11/17 03:13:40;;;;;;;0.60;0.60;;;10.10;99.90;;;;;;5052831;28;20198;-78
2022/11/17 03:16:16;;;;;;;0.60;0.60;;;10.10;99.90;;;;;;5052242;28;20213;-78
2022/11/17 03:18:53;;;;;;;0.70;0.40;;;10.00;99.90;;;;;;5051538;28;20214;-78
2022/11/17 03:21:23;;;;;;;0.50;0.40;;;10.00;99.90;;;;;;5052071;28;20199;-78
2022/11/17 03:23:54;;;;;;;0.80;0.80;;;10.00;99.90;;;;;;5058007;28;20302;-78
2022/11/17 03:26:26;;;;;;;2.08;1.10;;;10.10;99.90;;;;;;5063153;28;20175;-77
2022/11/17 03:28:55;;;;;;;1.07;0.80;;;10.00;99.90;;;;;;5053149;28;20254;-78
2022/11/17 03:31:24;;;;;;;1.63;1.40;;;10.00;99.90;;;;;;5051080;28;20978;-78
2022/11/17 03:33:52;;;;;;;0.50;0.40;;;10.00;99.90;;;;;;5052045;28;20293;-78
2022/11/17 03:36:25;;;;;;;0.50;0.50;;;10.00;99.90;;;;;;5051340;28;20211;-75
2022/11/17 03:38:58;;;;;;;0.57;0.57;;;10.00;99.90;;;;;;5051397;28;20764;-78
2022/11/17 03:41:29;;;;;;;0.57;0.57;;;10.00;99.90;;;;;;5051009;28;20294;-78
2022/11/17 03:43:59;;;;;;;0.50;0.40;;;10.00;99.90;;;;;;5051243;28;20298;-78
2022/11/17 03:46:27;;;;;;;0.60;0.50;;;10.00;99.90;;;;;;5052516;28;20191;-79
2022/11/17 03:49:02;;;;;;;0.50;0.40;;;9.90;99.90;;;;;;5053198;28;20337;-79
2022/11/17 03:51:32;;;;;;;1.17;0.80;;;9.90;99.90;;;;;;5047413;28;20285;-77
2022/11/17 03:54:00;;;;;;;0.50;0.50;;;9.90;99.90;;;;;;5054075;28;20272;-78
2022/11/17 03:56:35;;;;;;;0.75;0.75;;;9.90;99.90;;;;;;5054550;28;20229;-77
2022/11/17 03:59:11;;;;;;;0.50;0.50;;;9.90;99.90;;;;;;5054515;28;20308;-77
2022/11/17 04:01:38;;;;;;;0.60;0.60;;;9.90;99.90;;;;;;5054827;28;20542;-79
2022/11/17 04:04:05;;;;;;;1.63;0.95;;;9.90;99.90;;;;;;5053912;28;20198;-77
2022/11/17 04:06:32;;;;;;;0.50;0.40;;;9.90;99.90;;;;;;5054288;28;20576;-77
2022/11/17 04:08:59;;;;;;;0.82;0.82;;;9.90;99.90;;;;;;5053929;28;20306;-77
2022/11/17 04:16:56;;;;;;;0.50;0.40;;;9.90;99.90;;;;;;5054085;28;20280;-77
2022/11/17 04:19:23;;;;;;;0.50;0.40;;;9.90;99.90;;;;;;5054098;28;20225;-77
2022/11/17 04:21:50;;;;;;;0.50;0.40;;;9.80;99.90;;;;;;5053861;28;20259;-77
2022/11/17 04:24:17;;;;;;;1.52;0.85;;;9.80;99.90;;;;;;5053622;28;20199;-76
2022/11/17 04:29:29;;;;;;;0.60;0.50;;;9.90;99.90;;;;;;5054191;28;20694;-78
2022/11/17 04:31:56;;;;;;;0.50;0.40;;;9.90;99.90;;;;;;5053698;28;20557;-77
2022/11/17 04:34:23;;;;;;;1.23;1.17;;;9.90;99.90;;;;;;5053785;28;20201;-77
2022/11/17 04:36:50;;;;;;;0.60;0.50;;;10.00;99.90;;;;;;5053436;28;20218;-77
2022/11/17 04:39:18;;;;;;;0.50;0.45;;;10.00;99.90;;;;;;5053144;28;20219;-78
2022/11/17 04:41:53;;;;;;;0.50;0.40;;;10.00;99.90;;;;;;5054079;28;20205;-77
2022/11/17 04:44:20;;;;;;;1.55;1.45;;;9.90;99.90;;;;;;5053643;28;20603;-77
2022/11/17 04:46:49;;;;;;;0.70;0.70;;;10.00;99.90;;;;;;5054024;28;20195;-77
2022/11/17 04:49:17;;;;;;;0.60;0.50;;;10.00;99.90;;;;;;5054212;28;20341;-77
2022/11/17 04:51:45;;;;;;;0.50;0.50;;;10.10;99.90;;;;;;5054621;28;20229;-77
2022/11/17 04:54:14;;;;;;;0.50;0.40;;;10.10;99.90;;;;;;5054314;28;20190;-77
2022/11/17 04:56:41;;;;;;;0.50;0.50;;;10.10;99.90;;;;;;5054173;28;20282;-78
2022/11/17 04:59:09;;;;;;;0.75;0.50;;;10.10;99.90;;;;;;5053733;28;20210;-77
2022/11/17 05:01:36;;;;;;;0.50;0.40;;;10.00;99.90;;;;;;5052462;28;20190;-77
2022/11/17 05:04:06;;;;;;;0.50;0.40;;;10.00;99.90;;;;;;5054088;28;20198;-77
2022/11/17 05:06:35;;;;;;;0.50;0.50;;;10.00;99.90;;;;;;5053294;28;20201;-77
2022/11/17 05:09:04;;;;;;;0.70;0.60;;;10.00;99.90;;;;;;5053309;28;20214;-77
2022/11/17 05:14:18;;;;;;;0.50;0.40;;;10.00;99.90;;;;;;5053467;28;20189;-76
2022/11/17 05:19:32;;;;;;;0.50;0.50;;;10.00;99.90;;;;;;5052296;28;20213;-77
2022/11/17 05:21:59;;;;;;;0.50;0.40;;;10.10;99.90;;;;;;5052511;28;20201;-77
2022/11/17 05:24:25;;;;;;;0.50;0.40;;;10.20;99.90;;;;;;5051949;28;20202;-76
2022/11/17 05:26:52;;;;;;;0.68;0.45;;;10.30;99.90;;;;;;5053237;28;20210;-77
2022/11/17 05:29:21;;;;;;;0.50;0.40;;;10.30;99.90;;;;;;5052041;28;20210;-77
2022/11/17 05:31:48;;;;;;;1.40;0.77;;;10.40;99.90;;;;;;5053036;28;20205;-77
2022/11/17 05:34:17;;;;;;;0.50;0.50;;;10.40;99.90;;;;;;5052991;28;20289;-77
2022/11/17 05:36:45;;;;;;;0.50;0.40;;;10.40;99.90;;;;;;5053173;28;20203;-77
2022/11/17 05:39:12;;;;;;;0.63;0.60;;;10.40;99.90;;;;;;5052189;28;20229;-75
2022/11/17 05:41:40;;;;;;;0.80;0.70;;;10.30;99.90;;;;;;5052058;28;20194;-76
2022/11/17 05:44:07;;;;;;;0.50;0.50;;;10.20;99.90;;;;;;5052170;28;20198;-76
2022/11/17 05:46:33;;;;;;;0.50;0.40;;;10.10;99.90;;;;;;5052231;28;20190;-77
2022/11/17 05:49:00;;;;;;;0.70;0.50;;;10.10;99.90;;;;;;5052024;28;20301;-77
2022/11/17 05:51:27;;;;;;;0.80;0.57;;;10.10;99.90;;;;;;5052680;28;20791;-77
2022/11/17 05:53:55;;;;;;;0.93;0.70;;;10.00;99.90;;;;;;5052117;28;20281;-77
2022/11/17 05:56:30;;;;;;;0.52;0.52;;;10.00;99.90;;;;;;5052850;28;20201;-78
2022/11/17 05:59:02;;;;;;;2.53;2.33;;;10.00;99.90;;;;;;5053136;28;20221;-78
2022/11/17 06:01:31;;;;;;;0.63;0.63;;;10.00;99.90;;;;;;5053150;28;20432;-78
2022/11/17 06:04:03;;;;;;;1.15;1.05;;;10.00;99.90;;;;;;5052721;28;20195;-77
2022/11/17 06:06:30;;;;;;;0.60;0.50;;;10.00;99.90;;;;;;5052448;28;20544;-77
2022/11/17 06:08:58;;;;;;;0.70;0.60;;;10.00;99.90;;;;;;5055566;28;20664;-81
2022/11/17 06:11:25;;;;;;;0.60;0.60;;;10.00;99.90;;;;;;5054045;28;20195;-81
2022/11/17 06:13:52;;;;;;;0.80;0.80;;;9.90;99.90;;;;;;5054805;28;20607;-78
2022/11/17 06:16:24;;;;;;;1.25;0.98;;;10.00;99.90;;;;;;5055714;28;20229;-81
2022/11/17 06:18:56;;;;;;;1.40;0.98;;;9.90;99.90;;;;;;5055265;28;20693;-81
2022/11/17 06:21:23;;;;;;;0.50;0.40;;;10.00;99.90;;;;;;5055032;28;20650;-81
2022/11/17 06:23:50;;;;;;;0.60;0.50;;;10.00;99.90;;;;;;5054932;28;20285;-78
2022/11/17 06:26:19;;;;;;;0.60;0.50;;;10.00;99.90;;;;;;5054584;28;20668;-80
2022/11/17 06:28:47;;;;;;;0.90;0.90;;;10.00;99.90;;;;;;5055765;28;20207;-81
2022/11/17 06:31:15;;;;;;;1.38;1.27;;;10.00;99.90;;;;;;5054054;28;20455;-80
2022/11/17 06:33:43;;;;;;;0.50;0.40;;;10.00;99.90;;;;;;5055119;28;20293;-82
2022/11/17 06:36:10;;;;;;;0.60;0.50;;;10.00;99.90;;;;;;5054700;28;20217;-80
2022/11/17 06:38:37;;;;;;;0.57;0.57;;;10.00;99.90;;;;;;5054559;28;20583;-80
2022/11/17 06:41:04;;;;;;;0.50;0.50;;;10.00;99.90;;;;;;5053229;28;20190;-81
2022/11/17 06:43:33;;;;;;;0.60;0.60;;;10.00;99.90;;;;;;5054675;28;20198;-81
2022/11/17 06:46:03;;;;;;;4.22;1.15;;;10.10;99.90;;;;;;5053756;28;20603;-81
2022/11/17 06:48:34;;;;;;;1.95;0.75;;;10.10;99.90;;;;;;5054415;28;20211;-82
2022/11/17 06:51:01;;;;;;;1.30;1.20;;;10.00;99.90;;;;;;5054474;28;20178;-79
2022/11/17 06:53:28;;;;;;;0.63;0.57;;;10.00;99.90;;;;;;5053176;28;20277;-80
2022/11/17 06:56:01;;;;;;;1.80;1.70;;;10.10;99.90;;;;;;5053338;28;20301;-78
2022/11/17 06:58:28;;;;;;;1.15;0.50;;;10.10;99.90;;;;;;5053946;28;20233;-79
2022/11/17 07:01:01;;;;;;;0.50;0.45;;;10.10;99.90;;;;;;5053957;28;20301;-78
2022/11/17 07:03:28;;;;;;;2.15;2.05;;;10.10;99.90;;;;;;5054246;28;20183;-82
2022/11/17 07:05:59;;;;;;;0.50;0.40;;;10.10;99.90;;;;;;5053312;28;20199;-80
2022/11/17 07:08:26;;;;;;;0.50;0.40;;;10.10;99.90;;;;;;5053652;28;20218;-79
2022/11/17 07:10:54;;;;;;;1.55;1.42;;;10.10;99.90;;;;;;5053993;28;20528;-79
2022/11/17 07:13:21;;;;;;;0.50;0.40;;;10.10;99.90;;;;;;5053520;28;20198;-80
2022/11/17 07:15:49;;;;;;;0.73;0.60;;;10.10;99.90;;;;;;5052792;28;20194;-79
2022/11/17 07:18:19;;;;;;;0.50;0.43;;;10.10;99.90;;;;;;5052523;28;20726;-80
2022/11/17 07:20:46;;;;;;;0.60;0.60;;;10.10;99.90;;;;;;5053904;28;20290;-79
2022/11/17 07:23:13;;;;;;;0.50;0.40;;;10.10;99.90;;;;;;5053404;28;20668;-79
2022/11/17 07:25:40;;;;;;;0.50;0.50;;;10.10;99.90;;;;;;5056692;28;20230;-80
2022/11/17 07:28:07;;;;;;;0.95;0.95;;;10.10;99.90;;;;;;5057418;28;20245;-80
2022/11/17 07:30:35;;;;;;;0.80;0.60;;;10.20;99.90;;;;;;5057683;28;20226;-79
2022/11/17 07:33:02;;;;;;;0.50;0.50;;;10.20;99.90;;;;;;5057057;28;20541;-79
2022/11/17 07:35:30;;;;;;;0.60;0.60;;;10.20;99.90;;;;;;5056923;28;20195;-80
2022/11/17 07:37:58;;;;;;;1.25;0.50;;;10.30;99.90;;;;;;5058893;28;20309;-80
2022/11/17 07:40:25;;;;;;;0.50;0.40;;;10.30;99.90;;;;;;5058391;28;20583;-79
2022/11/17 07:42:52;;;;;;;0.65;0.63;;;10.40;99.90;;;;;;5058417;28;20191;-79
2022/11/17 07:45:20;;;;;;;1.35;0.93;;;10.40;99.90;;;;;;5056363;28;20218;-78
2022/11/17 07:47:55;;;;;;;0.70;0.70;;;10.40;99.90;;;;;;5056973;28;20771;-80
2022/11/17 07:50:22;;;;;;;0.50;0.40;;;10.40;99.90;;;;;;5056992;28;20205;-79
2022/11/17 07:52:52;;;;;;;0.50;0.40;;;10.50;99.90;;;;;;5056840;28;20205;-79
2022/11/17 07:55:22;;;;;;;0.77;0.52;;;10.50;99.90;;;;;;5055948;28;20249;-77
2022/11/17 07:57:54;;;;;;;0.55;0.45;;;10.50;99.90;;;;;;5056340;28;20219;-79
2022/11/17 08:00:22;;;;;;;0.50;0.40;;;10.50;99.90;;;;;;5056626;28;20201;-82
2022/11/17 08:02:48;;;;;;;0.50;0.40;;;10.50;99.90;;;;;;5056458;28;20263;-78
2022/11/17 08:05:17;;;;;;;0.50;0.40;;;10.50;99.90;;;;;;5056380;28;20293;-81
2022/11/17 08:07:44;;;;;;;0.50;0.40;;;10.50;99.90;;;;;;5056136;28;20822;-79
2022/11/17 08:10:17;;;;;;;0.50;0.40;;;10.50;99.90;;;;;;5056443;28;20206;-79
2022/11/17 08:12:44;;;;;;;0.50;0.45;;;10.50;99.90;;;;;;5055981;28;20434;-79
2022/11/17 08:15:11;;;;;;;0.50;0.40;;;10.50;99.90;;;;;;5055670;28;20198;-79
2022/11/17 08:17:38;;;;;;;0.50;0.40;;;10.50;99.90;;;;;;5055775;28;20474;-80
2022/11/17 08:20:06;;;;;;;0.85;0.75;;;10.40;99.90;;;;;;5056296;28;20229;-80
2022/11/17 08:22:32;;;;;;;0.60;0.60;;;10.40;99.90;;;;;;5056372;28;20197;-79
2022/11/17 08:24:59;;;;;;;0.50;0.40;;;10.30;99.90;;;;;;5055160;28;20194;-80
2022/11/17 08:27:27;;;;;;;0.50;0.40;;;10.30;99.90;;;;;;5056354;28;20217;-79
2022/11/17 08:29:54;;;;;;;0.50;0.40;;;10.30;99.90;;;;;;5057347;28;20209;-80
2022/11/17 08:32:21;;;;;;;0.50;0.40;;;10.30;99.90;;;;;;5057618;28;20635;-80
2022/11/17 08:34:48;;;;;;;0.50;0.40;;;10.30;99.90;;;;;;5054638;28;20230;-80
2022/11/17 08:37:15;;;;;;;1.13;0.82;;;10.30;99.90;;;;;;5057050;28;20305;-80
2022/11/17 08:39:42;;;;;;;0.50;0.40;;;10.30;99.90;;;;;;5055783;28;20242;-80
2022/11/17 08:42:09;;;;;;;0.50;0.40;;;10.30;99.90;;;;;;5056665;28;20666;-80
2022/11/17 08:44:37;;;;;;;2.67;0.95;;;10.40;99.90;;;;;;5055446;28;20210;-79
2022/11/17 08:47:04;;;;;;;0.50;0.40;;;10.40;99.90;;;;;;5056170;28;20227;-82
2022/11/17 08:49:31;;;;;;;0.77;0.60;;;10.30;99.90;;;;;;5056010;28;20221;-80
2022/11/17 08:51:57;;;;;;;0.80;0.55;;;10.30;99.90;;;;;;5056049;28;20285;-79
2022/11/17 08:54:24;;;;;;;0.50;0.40;;;10.30;99.90;;;;;;5055169;28;20205;-79
2022/11/17 08:56:56;;;;;;;3.80;0.60;;;10.30;99.90;;;;;;5056197;28;20194;-79
2022/11/17 08:59:22;;;;;;;4.32;0.98;;;10.20;99.90;;;;;;5055461;28;20253;-79
2022/11/17 09:01:51;;;;;;;0.60;0.52;;;10.20;99.90;;;;;;5054979;28;20194;-79
2022/11/17 09:04:18;;;;;;;0.77;0.60;;;10.20;99.90;;;;;;5054863;28;20199;-78
2022/11/17 09:06:45;;;;;;;0.63;0.40;;;10.30;99.90;;;;;;5055741;28;20528;-81
2022/11/17 09:09:12;;;;;;;0.50;0.40;;;10.20;99.90;;;;;;5055166;28;20241;-79
2022/11/17 09:11:39;;;;;;;0.50;0.40;;;10.20;99.90;;;;;;5055203;28;20282;-79
2022/11/17 09:14:07;;;;;;;2.35;1.25;;;10.20;99.90;;;;;;5054901;28;20200;-79
2022/11/17 09:16:35;;;;;;;0.70;0.50;;;10.20;99.90;;;;;;5055418;28;20244;-79
2022/11/17 09:19:03;;;;;;;0.50;0.40;;;10.20;99.90;;;;;;5054822;28;20249;-82
2022/11/17 09:21:31;;;;;;;0.50;0.40;;;10.30;99.90;;;;;;5054792;28;20261;-81
2022/11/17 09:23:58;;;;;;;0.50;0.40;;;10.30;99.90;;;;;;5054721;28;20202;-79
2022/11/17 09:26:25;;;;;;;0.50;0.43;;;10.40;99.90;;;;;;5055426;28;20198;-81
2022/11/17 09:28:52;;;;;;;0.50;0.35;;;10.50;99.90;;;;;;5055411;28;20266;-81
2022/11/17 09:31:21;;;;;;;0.50;0.40;;;10.50;99.90;;;;;;5054638;28;20664;-81
2022/11/17 09:33:48;;;;;;;0.50;0.38;;;10.60;99.90;;;;;;5054686;28;20190;-81
2022/11/17 09:36:16;;;;;;;0.50;0.40;;;10.60;99.90;;;;;;5054711;28;20274;-81
2022/11/17 09:38:44;;;;;;;0.50;0.40;;;10.70;99.90;;;;;;5054784;28;20309;-80
2022/11/17 09:41:21;;;;;;;0.50;0.40;;;10.80;99.90;;;;;;5054337;28;20445;-81
2022/11/17 09:43:54;;;;;;;0.95;0.70;;;10.90;99.90;;;;;;5054671;28;20248;-79
2022/11/17 09:46:27;;;;;;;0.50;0.40;;;10.90;99.90;;;;;;5054347;28;20186;-80
2022/11/17 09:48:58;;;;;;;0.80;0.60;;;11.00;99.90;;;;;;5054570;28;20218;-81
2022/11/17 09:51:31;;;;;;;0.50;0.40;;;10.90;99.90;;;;;;5054380;28;20190;-81
2022/11/17 09:54:04;;;;;;;1.13;1.03;;;10.90;99.90;;;;;;5053795;28;20183;-81
2022/11/17 09:56:30;;;;;;;0.50;0.50;;;11.00;99.90;;;;;;5054870;28;20437;-82
2022/11/17 09:59:03;;;;;;;0.50;0.40;;;11.00;99.90;;;;;;5054436;28;20481;-81
2022/11/17 10:01:30;;;;;;;0.50;0.40;;;11.00;99.90;;;;;;5054710;28;20274;-81
2022/11/17 10:03:58;;;;;;;0.70;0.50;;;11.10;99.90;;;;;;5054029;28;20293;-81
2022/11/17 10:06:29;;;;;;;0.63;0.50;;;11.10;99.90;;;;;;5054339;28;20195;-80
2022/11/17 10:09:00;;;;;;;2.25;0.45;;;11.10;99.90;;;;;;5054627;28;20289;-81
2022/11/17 10:11:32;;;;;;;0.50;0.40;;;11.10;99.90;;;;;;5054544;28;20248;-80
2022/11/17 10:14:03;;;;;;;0.80;0.70;;;11.10;99.90;;;;;;5053266;28;20811;-81
2022/11/17 10:16:30;;;;;;;0.50;0.40;;;11.20;99.90;;;;;;5045845;28;20467;-80
2022/11/17 10:18:57;;;;;;;0.50;0.40;;;11.20;99.90;;;;;;5053845;28;20305;-81
2022/11/17 10:21:24;;;;;;;0.50;0.40;;;11.30;99.90;;;;;;5054326;28;20521;-80
2022/11/17 10:23:57;;;;;;;0.50;0.40;;;11.40;99.90;;;;;;5054680;28;20198;-80
2022/11/17 10:26:24;;;;;;;1.10;1.10;;;11.50;99.90;;;;;;5054928;28;20779;-80
2022/11/17 10:29:05;;;;;;;0.50;0.40;;;11.60;99.90;;;;;;5053744;28;20460;-80
2022/11/17 10:31:41;;;;;;;0.60;0.40;;;11.70;99.90;;;;;;5053915;28;20549;-80
2022/11/17 10:34:10;;;;;;;0.50;0.40;;;11.90;99.90;;;;;;5052981;28;20635;-80
2022/11/17 10:36:45;;;;;;;1.27;1.23;;;11.90;99.90;;;;;;5054001;28;20438;-79
2022/11/17 10:39:33;;;;;;;0.70;0.70;;;12.00;99.90;;;;;;5053040;28;20547;-75
2022/11/17 10:42:11;;;;;;;0.50;0.50;;;12.00;99.90;;;;;;5054653;28;20938;-80
2022/11/17 10:44:42;;;;;;;0.50;0.40;;;12.00;99.90;;;;;;5053426;28;20520;-81
2022/11/17 10:47:25;;;;;;;0.50;0.43;;;12.10;99.90;;;;;;5053759;28;20479;-78
2022/11/17 10:50:07;;;;;;;0.50;0.40;;;12.20;99.90;;;;;;5054434;28;20434;-80
2022/11/17 10:52:34;;;;;;;0.50;0.40;;;12.20;99.90;;;;;;5054006;28;20475;-79
2022/11/17 10:55:18;;;;;;;0.60;0.40;;;12.30;99.90;;;;;;5053430;28;20918;-81
2022/11/17 10:57:47;;;;;;;0.50;0.40;;;12.50;99.90;;;;;;5054359;28;20460;-82
2022/11/17 11:00:23;;;;;;;0.60;0.40;;;12.50;99.90;;;;;;5057522;28;20745;-79
2022/11/17 11:03:03;;;;;;;0.50;0.40;;;12.40;99.90;;;;;;5058739;28;20425;-81
2022/11/17 11:05:30;;;;;;;0.50;0.40;;;12.40;99.90;;;;;;5057342;28;20942;-81
2022/11/17 11:08:16;;;;;;;0.70;0.60;;;12.40;99.90;;;;;;5058829;28;20512;-81
2022/11/17 11:10:48;;;;;;;0.70;0.60;;;12.50;99.90;;;;;;5059535;28;20520;-80
2022/11/17 11:13:22;;;;;;;1.90;0.50;;;12.50;99.90;;;;;;5059048;28;20489;-80
2022/11/17 11:15:50;;;;;;;0.50;0.40;;;12.60;99.90;;;;;;5057382;28;20441;-81
2022/11/17 11:18:19;;;;;;;0.50;0.40;;;12.50;99.90;;;;;;5057672;28;20465;-81
2022/11/17 11:20:54;;;;;;;0.50;0.40;;;12.50;99.90;;;;;;5057814;28;20635;-81
2022/11/17 11:23:32;;;;;;;0.50;0.40;;;12.40;99.90;;;;;;5059071;28;20457;-81
2022/11/17 11:26:17;;;;;;;0.50;0.40;;;12.30;99.90;;;;;;5057048;28;20926;-81
2022/11/17 11:28:58;;;;;;;0.50;0.40;;;12.20;99.90;;;;;;5058364;28;20459;-81
2022/11/17 11:31:32;;;;;;;0.50;0.40;;;12.10;99.90;;;;;;5057587;28;20504;-81
2022/11/17 11:34:09;;;;;;;2.10;0.87;;;12.10;99.90;;;;;;5056518;28;20432;-80
2022/11/17 11:36:40;;;;;;;3.40;0.70;;;12.20;99.90;;;;;;5057373;28;20857;-81
2022/11/17 11:39:16;;;;;;;0.50;0.40;;;12.20;99.90;;;;;;5057607;28;20473;-79
2022/11/17 11:42:08;;;;;;;0.60;0.50;;;12.30;99.90;;;;;;5056631;28;20277;-78
2022/11/17 11:45:00;;;;;;;3.60;1.63;;;12.20;99.90;;;;;;5056118;28;20426;-79
2022/11/17 11:47:42;;;;;;;0.50;0.30;;;12.20;99.90;;;;;;5053479;28;20456;-79
2022/11/17 11:50:14;;;;;;;0.50;0.40;;;12.20;99.90;;;;;;5057082;28;20453;-79
2022/11/17 11:52:46;;;;;;;0.57;0.47;;;12.10;99.90;;;;;;5056899;28;20455;-79
2022/11/17 11:55:20;;;;;;;0.50;0.38;;;12.10;99.90;;;;;;5056894;28;20994;-79
2022/11/17 11:57:53;;;;;;;0.50;0.40;;;12.10;99.90;;;;;;5057076;28;20215;-79
2022/11/17 12:00:20;;;;;;;4.17;1.43;;;12.10;99.90;;;;;;5056897;28;20285;-79
2022/11/17 12:02:52;;;;;;;0.73;0.70;;;12.10;99.90;;;;;;5057071;28;20524;-81
2022/11/17 12:05:26;;;;;;;0.50;0.30;;;12.10;99.90;;;;;;5056963;28;20445;-82
2022/11/17 12:08:02;;;;;;;0.60;0.50;;;12.00;99.90;;;;;;5058471;28;20544;-78
2022/11/17 12:10:35;;;;;;;3.08;0.50;;;12.00;99.90;;;;;;5057129;28;20182;-78
2022/11/17 12:13:04;;;;;;;0.50;0.40;;;11.80;99.90;;;;;;5056793;28;20193;-80
2022/11/17 12:15:34;;;;;;;0.50;0.40;;;11.70;99.90;;;;;;5055417;28;20199;-80
2022/11/17 12:18:03;;;;;;;0.80;0.40;;;11.60;99.90;;;;;;5056980;28;20297;-80
2022/11/17 12:20:52;;;;;;;0.50;0.50;;;11.60;99.90;;;;;;5056143;28;20225;-81
2022/11/17 12:23:38;;;;;;;0.50;0.40;;;11.60;99.90;;;;;;5056764;28;20186;-77
2022/11/17 12:26:05;;;;;;;0.50;0.40;;;11.60;99.90;;;;;;5051559;28;20222;-81
2022/11/17 12:28:35;;;;;;;0.50;0.40;;;11.60;99.90;;;;;;5056350;28;20221;-80
2022/11/17 12:31:04;;;;;;;0.50;0.40;;;11.70;99.90;;;;;;5057556;28;20480;-80
2022/11/17 12:34:10;;;;;;;2.80;0.60;;;11.70;99.90;;;;;;5057632;28;20559;-81
2022/11/17 12:36:37;;;;;;;0.50;0.40;;;11.70;99.90;;;;;;5057040;28;20200;-78
2022/11/17 12:39:06;;;;;;;1.13;1.00;;;11.70;99.90;;;;;;5056423;28;20233;-78
2022/11/17 12:42:06;;;;;;;0.80;0.70;;;11.70;99.90;;;;;;5054669;28;20437;-80
2022/11/17 12:45:01;;;;;;;0.50;0.43;;;11.70;99.90;;;;;;5055540;28;21004;-81
2022/11/17 12:47:30;;;;;;;0.50;0.40;;;11.50;99.90;;;;;;5056559;28;20563;-79
2022/11/17 12:50:19;;;;;;;0.52;0.52;;;11.40;99.90;;;;;;5055828;28;20221;-79
2022/11/17 12:52:55;;;;;;;0.50;0.35;;;11.20;99.90;;;;;;5052417;28;20281;-78
2022/11/17 12:55:28;;;;;;;0.80;0.77;;;11.10;99.90;;;;;;5055196;28;20293;-77
2022/11/17 12:58:06;;;;;;;0.50;0.40;;;11.10;99.90;;;;;;5055429;28;20221;-79
2022/11/17 13:00:43;;;;;;;0.70;0.50;;;11.00;99.90;;;;;;5056185;28;20203;-79
2022/11/17 13:03:16;;;;;;;0.50;0.40;;;11.00;99.90;;;;;;5055790;28;20281;-77
2022/11/17 13:05:42;;;;;;;0.50;0.40;;;11.00;99.90;;;;;;5054620;28;20205;-79
2022/11/17 13:08:17;;;;;;;0.50;0.40;;;11.10;99.90;;;;;;5056493;28;20560;-79
2022/11/17 13:10:44;;;;;;;0.50;0.50;;;11.10;99.90;;;;;;5056640;28;20544;-80
2022/11/17 13:13:13;;;;;;;0.50;0.40;;;11.10;99.90;;;;;;5055444;28;20617;-79
2022/11/17 13:15:42;;;;;;;0.50;0.40;;;11.10;99.90;;;;;;5054543;28;20198;-79
2022/11/17 13:18:11;;;;;;;0.50;0.45;;;11.10;99.90;;;;;;5056540;28;20713;-79
2022/11/17 13:20:39;;;;;;;0.50;0.40;;;11.20;99.90;;;;;;5055628;28;20212;-79
2022/11/17 13:23:14;;;;;;;0.50;0.30;;;11.20;99.90;;;;;;5057993;28;20202;-79
2022/11/17 13:25:41;;;;;;;0.50;0.40;;;11.10;99.90;;;;;;5057691;28;20265;-78
2022/11/17 13:28:26;;;;;;;0.50;0.40;;;11.10;99.90;;;;;;5057035;28;20769;-80
2022/11/17 13:30:54;;;;;;;0.50;0.40;;;11.10;99.90;;;;;;5055392;28;20424;-79